Buoy 51659

sailwx.info

Track history (hours):
 
Tides and Currents Weather Stations Pressure Air Temp Water Temp Dewpoint Dewpoint Depression Visibility Wind Speed Wind Dir Waves Ship Positions

Drifting buoy 51659

Last reported at 2013-Dec-05 04:15 UTC. Time now 2014-Sep-23 22:26 UTC.
Position N 08°27' W 152°23'.
Warning: this ship's position is months out of date.

Date/timePositionNaut miles runAvg speedWind from/ knotsBaromVisibWave heightAir tempDewpointWater temp
2013-Dec-05 04:15N 08°27' W 152°23'0 0.0
2013-Dec-05 03:41N 08°27' W 152°23'2 1.0
2013-Dec-05 02:01N 08°25' W 152°24'0 0.0
2013-Dec-05 01:48N 08°25' W 152°24'1 3.3
2013-Dec-05 01:38N 08°25' W 152°23'0 0.0
2013-Dec-05 01:23N 08°25' W 152°23'1 0.6
2013-Dec-04 23:45N 08°24' W 152°24'3 0.8
2013-Dec-04 20:34N 08°22' W 152°25'0 0.0
2013-Dec-04 19:41N 08°22' W 152°25'0 0.0
2013-Dec-04 17:25N 08°22' W 152°25'1 5.5
2013-Dec-04 17:18N 08°21' W 152°25'0 0.0
2013-Dec-04 15:47N 08°21' W 152°25'0 2.0
2013-Dec-04 15:39N 08°21' W 152°25'0 0.7
2013-Dec-04 15:00N 08°21' W 152°25'0 4.1
2013-Dec-04 14:53N 08°21' W 152°25'0 0.7
2013-Dec-04 14:38N 08°21' W 152°25'0 0.9
2013-Dec-04 14:34N 08°21' W 152°25'1 0.4
2013-Dec-04 12:57N 08°20' W 152°25'0 0.8
2013-Dec-04 12:34N 08°20' W 152°25'2 1.2
2013-Dec-04 10:46N 08°19' W 152°27'1 0.3
2013-Dec-04 07:04N 08°18' W 152°28'215.2
2013-Dec-04 06:57N 08°17' W 152°29'247.2
2013-Dec-04 06:55N 08°18' W 152°28'2 8.6
2013-Dec-04 06:44N 08°17' W 152°29'1 0.4
2013-Dec-04 04:48N 08°17' W 152°30'1 1.5
2013-Dec-04 04:05N 08°15' W 152°29'1 0.8
2013-Dec-04 03:05N 08°15' W 152°30'1 0.8
2013-Dec-04 01:59N 08°15' W 152°29'1 8.5
2013-Dec-04 01:50N 08°14' W 152°30'0 0.0
2013-Dec-04 00:14N 08°14' W 152°30'0 0.0
2013-Dec-03 23:57N 08°14' W 152°30'319.5
2013-Dec-03 23:48N 08°12' W 152°32'0 0.0
2013-Dec-03 22:11N 08°12' W 152°32'0 0.2
2013-Dec-03 20:00N 08°12' W 152°33'0 0.0
2013-Dec-03 19:46N 08°12' W 152°33'0 0.0 21.5
2013-Dec-03 19:43N 08°12' W 152°33'3 4.8 21.5
2013-Dec-03 19:05N 08°09' W 152°34'0 0.0
2013-Dec-03 18:17N 08°09' W 152°34'0 0.0
2013-Dec-03 18:01N 08°09' W 152°34'0 0.0 20.8
2013-Dec-03 16:18N 08°09' W 152°34'1 8.8 20.7
2013-Dec-03 16:11N 08°08' W 152°34'0 0.0 20.7
2013-Dec-03 15:20N 08°08' W 152°34'1 1.5 20.0
2013-Dec-03 14:47N 08°08' W 152°34'0 0.0 20.2
2013-Dec-03 14:35N 08°08' W 152°34'2 1.4 20.2
2013-Dec-03 12:59N 08°06' W 152°34'0 0.0 19.4
2013-Dec-03 12:48N 08°06' W 152°34'0 1.0 19.4
2013-Dec-03 12:43N 08°06' W 152°34'1 0.8 19.4
2013-Dec-03 11:04N 08°04' W 152°35'214.5 19.1
2013-Dec-03 10:57N 08°03' W 152°35'0 0.0 19.1
2013-Dec-03 09:01N 08°03' W 152°35'1 4.9 18.8
2013-Dec-03 08:45N 08°02' W 152°36'0 0.1 18.8
2013-Dec-03 07:18N 08°02' W 152°36'0 0.0 18.7
2013-Dec-03 07:05N 08°02' W 152°36'214.2 18.6
2013-Dec-03 06:58N 08°00' W 152°37'0 0.0 18.6
2013-Dec-03 05:15N 08°00' W 152°37'3 3.7 18.6
2013-Dec-03 04:27N 07°58' W 152°38'0 0.0 18.6
2013-Dec-03 03:36N 07°58' W 152°38'0 0.0 18.4
2013-Dec-03 02:51N 07°58' W 152°38'1 0.8 18.1
2013-Dec-03 02:04N 07°57' W 152°38'245.1 18.1
2013-Dec-03 02:01N 07°55' W 152°39'0 0.0 18.4
2013-Dec-03 00:04N 07°55' W 152°39'221.7 18.8
2013-Dec-02 23:58N 07°53' W 152°39'0 0.0 18.8
2013-Dec-02 22:25N 07°53' W 152°39'6 1.0 18.3
2013-Dec-02 16:42N 07°47' W 152°41'1 0.9 17.7
2013-Dec-02 15:43N 07°47' W 152°41'1 1.2 17.4
2013-Dec-02 15:09N 07°46' W 152°41'0 1.6 17.4
2013-Dec-02 15:00N 07°46' W 152°41'0 0.0 16.8
2013-Dec-02 14:58N 07°46' W 152°41'1 1.1 16.8
2013-Dec-02 14:06N 07°45' W 152°41'1 1.4 16.8
2013-Dec-02 13:19N 07°44' W 152°41'2 3.6 16.8
2013-Dec-02 12:51N 07°42' W 152°41'0 0.0 16.5
2013-Dec-02 11:15N 07°42' W 152°41'0 1.8 16.7
2013-Dec-02 11:13N 07°43' W 152°41'2 1.1 16.7
2013-Dec-02 09:19N 07°40' W 152°41'0 0.0 15.2
2013-Dec-02 08:55N 07°40' W 152°41'1 1.2 15.3
2013-Dec-02 07:46N 07°39' W 152°42'1 1.5 14.8
2013-Dec-02 07:17N 07°39' W 152°42'1 7.3 14.8
2013-Dec-02 07:12N 07°38' W 152°43'1 2.3 14.8
2013-Dec-02 06:56N 07°39' W 152°42'2 2.4 14.8
2013-Dec-02 06:01N 07°36' W 152°42'1 3.9 14.5
2013-Dec-02 05:47N 07°37' W 152°43'1 0.8 14.5
2013-Dec-02 04:11N 07°36' W 152°42'0 0.4 14.4
2013-Dec-02 03:14N 07°36' W 152°42'1 0.7 14.4
2013-Dec-02 02:21N 07°36' W 152°42'1 4.6 13.6
2013-Dec-02 02:14N 07°36' W 152°42'1 0.8 13.6
2013-Dec-02 00:38N 07°34' W 152°42'0 0.0 12.3
2013-Dec-02 00:17N 07°34' W 152°42'1 7.8 12.3
2013-Dec-02 00:09N 07°33' W 152°42'2 1.1 12.3
2013-Dec-01 22:34N 07°32' W 152°43'1 0.3 11.1
2013-Dec-01 19:57N 07°31' W 152°42'2 1.8 18.4
2013-Dec-01 19:02N 07°30' W 152°43'0 0.0 17.9
2013-Dec-01 18:29N 07°30' W 152°43'1 0.7 17.9
2013-Dec-01 17:12N 07°29' W 152°44'0 0.2 17.5
2013-Dec-01 15:33N 07°29' W 152°44'0 0.0 17.1
2013-Dec-01 15:04N 07°29' W 152°44'1 0.6 16.9
2013-Dec-01 13:31N 07°28' W 152°44'0 1.3 16.5
2013-Dec-01 13:27N 07°28' W 152°44'0 0.8 16.5
2013-Dec-01 13:04N 07°28' W 152°45'1 0.5 16.9
2013-Dec-01 11:29N 07°27' W 152°45'0 0.0 16.9
2013-Dec-01 11:25N 07°27' W 152°45'217.5 16.9
2013-Dec-01 11:18N 07°26' W 152°46'1 0.3 16.9
2013-Dec-01 07:59N 07°25' W 152°46'0 0.4 16.9
2013-Dec-01 07:23N 07°25' W 152°47'0 0.0 16.9
2013-Dec-01 06:25N 07°25' W 152°47'2 0.9 16.8
2013-Dec-01 04:42N 07°24' W 152°48'0 0.0 15.9
2013-Dec-01 03:36N 07°24' W 152°48'0 0.7 16.4
2013-Dec-01 03:02N 07°23' W 152°48'0 0.0 16.9
2013-Dec-01 02:32N 07°23' W 152°48'0 0.0 16.9
2013-Dec-01 02:25N 07°23' W 152°48'0 0.8 16.9
2013-Dec-01 01:57N 07°24' W 152°48'1 0.8 17.4
2013-Dec-01 00:50N 07°23' W 152°49'0 0.6 18.1
2013-Dec-01 00:27N 07°23' W 152°49'110.2 18.1
2013-Dec-01 00:21N 07°24' W 152°50'0 0.0 18.1
2013-Nov-30 22:48N 07°24' W 152°50'1 6.6 18.4
2013-Nov-30 22:38N 07°23' W 152°51'0 0.0 18.4
2013-Nov-30 21:02N 07°23' W 152°51'1 5.5 19.0
2013-Nov-30 20:56N 07°23' W 152°51'2 2.7 19.0
2013-Nov-30 20:16N 07°23' W 152°53'0 0.0 19.0
2013-Nov-30 19:23N 07°23' W 152°53'2 1.0 19.1
2013-Nov-30 17:49N 07°22' W 152°54'0 0.0 18.9
2013-Nov-30 16:13N 07°22' W 152°54'1 6.0 19.1
2013-Nov-30 16:04N 07°22' W 152°55'0 0.1 19.2
2013-Nov-30 15:19N 07°22' W 152°55'0 1.1 19.2
2013-Nov-30 14:58N 07°22' W 152°55'0 0.6 19.4
2013-Nov-30 14:52N 07°22' W 152°55'1 1.1 19.4
2013-Nov-30 13:42N 07°22' W 152°56'0 1.1 19.5
2013-Nov-30 13:18N 07°22' W 152°57'2 0.9 19.5
2013-Nov-30 11:34N 07°22' W 152°58'3 1.0 19.7
2013-Nov-30 08:25N 07°21' W 153°01'218.9 20.3
2013-Nov-30 08:20N 07°20' W 153°03'0 0.5 20.3
2013-Nov-30 07:41N 07°20' W 153°02'0 2.6 20.4
2013-Nov-30 07:34N 07°20' W 153°03'0 0.0 20.4
2013-Nov-30 06:46N 07°20' W 153°03'2 2.6 20.6
2013-Nov-30 05:59N 07°19' W 153°04'1 1.9 20.8
2013-Nov-30 05:13N 07°18' W 153°06'0 0.0 20.8
2013-Nov-30 04:03N 07°18' W 153°06'1 3.1 20.7
2013-Nov-30 03:34N 07°18' W 153°07'0 0.3 20.7
2013-Nov-30 02:41N 07°17' W 153°07'221.1 20.8
2013-Nov-30 02:34N 07°16' W 153°09'0 0.0 20.8
2013-Nov-30 02:24N 07°16' W 153°09'0 0.0 20.8
2013-Nov-30 01:02N 07°16' W 153°09'1 4.9 20.9
2013-Nov-30 00:54N 07°16' W 153°10'0 0.2 20.9
2013-Nov-30 00:39N 07°16' W 153°10'1 6.9 20.9
2013-Nov-30 00:32N 07°15' W 153°10'1 0.8 20.9
2013-Nov-29 22:58N 07°14' W 153°11'221.0 21.7
2013-Nov-29 22:51N 07°13' W 153°13'1 0.5 21.7
2013-Nov-29 20:37N 07°12' W 153°14'0 0.0 21.9
2013-Nov-29 19:44N 07°12' W 153°14'1 0.7 21.9
2013-Nov-29 18:54N 07°12' W 153°14'0 1.8 21.8
2013-Nov-29 18:48N 07°11' W 153°14'2 1.1 21.8
2013-Nov-29 16:42N 07°10' W 153°15'113.6 21.9
2013-Nov-29 16:36N 07°09' W 153°16'0 0.0 21.9
2013-Nov-29 15:30N 07°09' W 153°16'0 0.0 22.0
2013-Nov-29 15:23N 07°09' W 153°16'1 1.7 22.0
2013-Nov-29 15:03N 07°08' W 153°16'1 0.9 21.9
2013-Nov-29 13:50N 07°07' W 153°17'0 0.8 21.9
2013-Nov-29 13:27N 07°07' W 153°17'2 0.9 21.9
2013-Nov-29 11:47N 07°06' W 153°18'2 0.8 22.1
2013-Nov-29 08:48N 07°05' W 153°20'1 5.3 22.8
2013-Nov-29 08:39N 07°04' W 153°20'0 0.1 22.8
2013-Nov-29 07:59N 07°04' W 153°20'0 1.2
2013-Nov-29 07:56N 07°04' W 153°20'132.2 22.7
2013-Nov-29 07:55N 07°03' W 153°21'0 0.0 22.7
2013-Nov-29 07:05N 07°03' W 153°21'0 5.6 22.7
2013-Nov-29 07:00N 07°03' W 153°21'1 0.7 22.7
2013-Nov-29 06:04N 07°03' W 153°22'0 0.0
2013-Nov-29 05:41N 07°03' W 153°22'1 0.4 22.9
2013-Nov-29 04:27N 07°03' W 153°22'1 1.5 23.0
2013-Nov-29 04:02N 07°02' W 153°22'0 0.0
2013-Nov-29 02:52N 07°02' W 153°22'1 6.7 23.1
2013-Nov-29 02:44N 07°01' W 153°23'0 0.0 23.1
2013-Nov-29 01:10N 07°01' W 153°23'1 9.7 23.2
2013-Nov-29 01:03N 07°01' W 153°24'1 4.5 23.2
2013-Nov-29 00:49N 07°02' W 153°23'1 8.9 23.2
2013-Nov-29 00:42N 07°01' W 153°24'0 0.0 23.2
2013-Nov-28 23:04N 07°01' W 153°24'112.0 23.1
2013-Nov-28 23:01N 07°01' W 153°25'2 0.9 23.1
2013-Nov-28 20:57N 07°00' W 153°26'1 3.9 23.4
2013-Nov-28 20:47N 07°00' W 153°26'1 1.3 23.4
2013-Nov-28 20:04N 06°60' W 153°27'0 0.3 23.4
2013-Nov-28 19:14N 07°00' W 153°27'1 2.6
2013-Nov-28 19:01N 06°60' W 153°27'0 0.0 23.1
2013-Nov-28 18:22N 06°60' W 153°27'0 0.0 23.1
2013-Nov-28 17:15N 06°60' W 153°27'0 1.8 23.5
2013-Nov-28 17:05N 06°60' W 153°28'0 0.0
2013-Nov-28 15:40N 06°60' W 153°28'0 0.0 23.7
2013-Nov-28 15:36N 06°60' W 153°28'1 6.9 23.7
2013-Nov-28 15:24N 06°60' W 153°29'0 0.0 23.7
2013-Nov-28 14:04N 06°60' W 153°29'161.6
2013-Nov-28 14:03N 07°00' W 153°30'3 1.5 23.4
2013-Nov-28 12:02N 07°02' W 153°32'0 0.0 23.3
2013-Nov-28 08:14N 07°02' W 153°32'0 0.0 23.2
2013-Nov-28 08:00N 07°02' W 153°32'1 1.0 23.1
2013-Nov-28 07:28N 07°02' W 153°33'0 2.6 23.1
2013-Nov-28 07:21N 07°02' W 153°33'0 0.0 23.1
2013-Nov-28 06:27N 07°02' W 153°33'213.1 23.1
2013-Nov-28 06:18N 07°02' W 153°35'1 0.6 23.1
2013-Nov-28 04:36N 07°02' W 153°34'2 1.2 22.9
2013-Nov-28 03:13N 07°02' W 153°35'0 0.7 22.9
2013-Nov-28 03:03N 07°02' W 153°35'1 8.9 22.8
2013-Nov-28 02:53N 07°02' W 153°37'0 0.0 22.8
2013-Nov-28 01:23N 07°02' W 153°37'0 0.0 22.8
2013-Nov-28 01:17N 07°02' W 153°37'1 1.8 22.8
2013-Nov-28 01:00N 07°03' W 153°37'1 0.7 22.8
2013-Nov-27 23:20N 07°03' W 153°39'316.8 22.8
2013-Nov-27 23:10N 07°03' W 153°41'1 0.6 22.8
2013-Nov-27 21:15N 07°03' W 153°42'0 0.0 22.7
2013-Nov-27 20:26N 07°03' W 153°42'0 0.5 22.6
2013-Nov-27 19:36N 07°03' W 153°43'0 0.0 22.5
2013-Nov-27 19:20N 07°03' W 153°43'117.1 22.5
2013-Nov-27 19:15N 07°03' W 153°44'0 0.0 22.5
2013-Nov-27 18:44N 07°03' W 153°44'0 0.0 22.3
2013-Nov-27 17:44N 07°03' W 153°44'4 2.4 22.2
2013-Nov-27 16:00N 07°02' W 153°48'0 0.0 22.1
2013-Nov-27 14:16N 07°02' W 153°48'0 1.8 22.0
2013-Nov-27 14:12N 07°02' W 153°49'3 6.3 22.0
2013-Nov-27 13:48N 07°02' W 153°51'0 0.0 21.8
2013-Nov-27 12:13N 07°02' W 153°51'4 1.0 22.7
2013-Nov-27 08:18N 07°01' W 153°55'1 2.6 22.7
2013-Nov-27 07:49N 07°01' W 153°56'0 3.6 23.1
2013-Nov-27 07:42N 07°01' W 153°57'0 0.0 23.1
2013-Nov-27 06:52N 07°01' W 153°57'0 0.0
2013-Nov-27 06:39N 07°01' W 153°57'215.8 23.0
2013-Nov-27 06:31N 07°00' W 153°59'0 0.0 23.0
2013-Nov-27 06:05N 07°00' W 153°59'2 1.8 23.1
2013-Nov-27 05:09N 06°60' W 154°00'223.3 23.1
2013-Nov-27 05:05N 07°00' W 153°59'2 1.1 23.4
2013-Nov-27 03:37N 06°60' W 154°00'0 0.0 23.6
2013-Nov-27 03:24N 06°60' W 154°00'0 0.5 23.6
2013-Nov-27 03:14N 06°60' W 154°00'2 1.2 23.6
2013-Nov-27 01:35N 06°59' W 154°02'1 4.7 23.5
2013-Nov-27 01:28N 06°58' W 154°02'0 0.0 23.5
2013-Nov-27 01:11N 06°58' W 154°02'215.8 23.5
2013-Nov-27 01:04N 06°57' W 154°04'0 0.0 23.7
2013-Nov-26 23:32N 06°57' W 154°04'211.5 23.5
2013-Nov-26 23:23N 06°57' W 154°06'1 0.5 23.5
2013-Nov-26 21:04N 06°56' W 154°06'1 0.8 23.5
2013-Nov-26 19:33N 06°55' W 154°06'0 0.6 23.4
2013-Nov-26 19:27N 06°55' W 154°06'1 1.9 23.4
2013-Nov-26 19:04N 06°55' W 154°06'1 0.5 23.3
2013-Nov-26 16:38N 06°54' W 154°07'214.1 23.3
2013-Nov-26 16:31N 06°52' W 154°08'0 0.0 23.3
2013-Nov-26 14:56N 06°52' W 154°08'0 2.9 23.3
2013-Nov-26 14:47N 06°52' W 154°08'0 0.0 23.3
2013-Nov-26 14:25N 06°52' W 154°08'2 0.9 23.3
2013-Nov-26 12:44N 06°50' W 154°07'0 0.0 23.2
2013-Nov-26 12:21N 06°50' W 154°07'0 0.1 23.2
2013-Nov-26 10:41N 06°50' W 154°07'1 0.4 23.2
2013-Nov-26 08:32N 06°50' W 154°08'0 2.0 23.2
2013-Nov-26 08:23N 06°50' W 154°08'0 0.6 23.2
2013-Nov-26 08:05N 06°50' W 154°08'0 5.7 23.2
2013-Nov-26 08:03N 06°50' W 154°08'0 0.1 23.2
2013-Nov-26 07:23N 06°50' W 154°08'0 1.0 23.2
2013-Nov-26 07:16N 06°50' W 154°08'0 0.0 23.2
2013-Nov-26 06:52N 06°50' W 154°08'0 2.4 23.2
2013-Nov-26 06:43N 06°50' W 154°08'0 1.4 23.2
2013-Nov-26 06:27N 06°50' W 154°08'1 0.6 23.2
2013-Nov-26 04:00N 06°49' W 154°09'0 0.0 22.9
2013-Nov-26 03:25N 06°49' W 154°09'0 0.0 22.9
2013-Nov-26 02:22N 06°49' W 154°09'0 0.0 22.9
2013-Nov-26 01:46N 06°49' W 154°09'0 2.8 22.8
2013-Nov-26 01:36N 06°49' W 154°09'0 0.0 22.8
2013-Nov-26 01:20N 06°49' W 154°09'1 0.6 22.8
2013-Nov-25 23:34N 06°50' W 154°09'0 0.1 22.7
2013-Nov-25 21:00N 06°50' W 154°09'1 1.3 22.5
2013-Nov-25 20:19N 06°51' W 154°10'0 0.0 22.5
2013-Nov-25 19:44N 06°51' W 154°10'0 0.0 22.4
2013-Nov-25 19:41N 06°51' W 154°10'0 0.5 22.4
2013-Nov-25 19:26N 06°51' W 154°10'3 1.5 22.4
2013-Nov-25 17:09N 06°54' W 154°11'0 0.0 22.7
2013-Nov-25 16:53N 06°54' W 154°11'0 0.0 22.7
2013-Nov-25 15:30N 06°54' W 154°11'0 0.0 22.7
2013-Nov-25 15:21N 06°54' W 154°11'0 0.0 22.7
2013-Nov-25 15:16N 06°54' W 154°11'1 1.1 22.7
2013-Nov-25 14:38N 06°55' W 154°12'0 0.7 22.7
2013-Nov-25 14:33N 06°55' W 154°11'2 1.3 22.7
2013-Nov-25 12:55N 06°57' W 154°12'0 0.0 22.4
2013-Nov-25 12:35N 06°57' W 154°12'2 1.3 22.4
2013-Nov-25 10:52N 06°59' W 154°12'1 0.2 21.4
2013-Nov-25 08:23N 06°60' W 154°12'0 0.0 22.0
2013-Nov-25 07:44N 06°60' W 154°12'1 7.1 22.3
2013-Nov-25 07:37N 06°60' W 154°11'0 0.0 22.3
2013-Nov-25 06:55N 06°60' W 154°11'0 0.0 22.5
2013-Nov-25 06:51N 06°60' W 154°11'0 0.0 22.5
2013-Nov-25 06:02N 06°60' W 154°11'5 3.2 22.5
2013-Nov-25 04:32N 07°03' W 154°14'0 0.0 22.6
2013-Nov-25 04:25N 07°03' W 154°14'   22.6
Track history (hours):
 
Tides and Currents Weather Stations Pressure Air Temp Water Temp Dewpoint Dewpoint Depression Visibility Wind Speed Wind Dir Waves Ship Positions

Drifting buoy 51659

Last reported at 2013-Dec-05 04:15 UTC. Time now 2014-Sep-23 22:26 UTC.
Position N 08°27' W 152°23'.
Warning: this ship's position is months out of date.

Date/timePositionNaut miles runAvg speedWind from/ knotsBaromVisibWave heightAir tempDewpointWater temp
2013-Dec-05 04:15N 08°27' W 152°23'0 0.0
2013-Dec-05 03:41N 08°27' W 152°23'2 1.0
2013-Dec-05 02:01N 08°25' W 152°24'0 0.0
2013-Dec-05 01:48N 08°25' W 152°24'1 3.3
2013-Dec-05 01:38N 08°25' W 152°23'0 0.0
2013-Dec-05 01:23N 08°25' W 152°23'1 0.6
2013-Dec-04 23:45N 08°24' W 152°24'3 0.8
2013-Dec-04 20:34N 08°22' W 152°25'0 0.0
2013-Dec-04 19:41N 08°22' W 152°25'0 0.0
2013-Dec-04 17:25N 08°22' W 152°25'1 5.5
2013-Dec-04 17:18N 08°21' W 152°25'0 0.0
2013-Dec-04 15:47N 08°21' W 152°25'0 2.0
2013-Dec-04 15:39N 08°21' W 152°25'0 0.7
2013-Dec-04 15:00N 08°21' W 152°25'0 4.1
2013-Dec-04 14:53N 08°21' W 152°25'0 0.7
2013-Dec-04 14:38N 08°21' W 152°25'0 0.9
2013-Dec-04 14:34N 08°21' W 152°25'1 0.4
2013-Dec-04 12:57N 08°20' W 152°25'0 0.8
2013-Dec-04 12:34N 08°20' W 152°25'2 1.2
2013-Dec-04 10:46N 08°19' W 152°27'1 0.3
2013-Dec-04 07:04N 08°18' W 152°28'215.2
2013-Dec-04 06:57N 08°17' W 152°29'247.2
2013-Dec-04 06:55N 08°18' W 152°28'2 8.6
2013-Dec-04 06:44N 08°17' W 152°29'1 0.4
2013-Dec-04 04:48N 08°17' W 152°30'1 1.5
2013-Dec-04 04:05N 08°15' W 152°29'1 0.8
2013-Dec-04 03:05N 08°15' W 152°30'1 0.8
2013-Dec-04 01:59N 08°15' W 152°29'1 8.5
2013-Dec-04 01:50N 08°14' W 152°30'0 0.0
2013-Dec-04 00:14N 08°14' W 152°30'0 0.0
2013-Dec-03 23:57N 08°14' W 152°30'319.5
2013-Dec-03 23:48N 08°12' W 152°32'0 0.0
2013-Dec-03 22:11N 08°12' W 152°32'0 0.2
2013-Dec-03 20:00N 08°12' W 152°33'0 0.0
2013-Dec-03 19:46N 08°12' W 152°33'0 0.0 21.5
2013-Dec-03 19:43N 08°12' W 152°33'3 4.8 21.5
2013-Dec-03 19:05N 08°09' W 152°34'0 0.0
2013-Dec-03 18:17N 08°09' W 152°34'0 0.0
2013-Dec-03 18:01N 08°09' W 152°34'0 0.0 20.8
2013-Dec-03 16:18N 08°09' W 152°34'1 8.8 20.7
2013-Dec-03 16:11N 08°08' W 152°34'0 0.0 20.7
2013-Dec-03 15:20N 08°08' W 152°34'1 1.5 20.0
2013-Dec-03 14:47N 08°08' W 152°34'0 0.0 20.2
2013-Dec-03 14:35N 08°08' W 152°34'2 1.4 20.2
2013-Dec-03 12:59N 08°06' W 152°34'0 0.0 19.4
2013-Dec-03 12:48N 08°06' W 152°34'0 1.0 19.4
2013-Dec-03 12:43N 08°06' W 152°34'1 0.8 19.4
2013-Dec-03 11:04N 08°04' W 152°35'214.5 19.1
2013-Dec-03 10:57N 08°03' W 152°35'0 0.0 19.1
2013-Dec-03 09:01N 08°03' W 152°35'1 4.9 18.8
2013-Dec-03 08:45N 08°02' W 152°36'0 0.1 18.8
2013-Dec-03 07:18N 08°02' W 152°36'0 0.0 18.7
2013-Dec-03 07:05N 08°02' W 152°36'214.2 18.6
2013-Dec-03 06:58N 08°00' W 152°37'0 0.0 18.6
2013-Dec-03 05:15N 08°00' W 152°37'3 3.7 18.6
2013-Dec-03 04:27N 07°58' W 152°38'0 0.0 18.6
2013-Dec-03 03:36N 07°58' W 152°38'0 0.0 18.4
2013-Dec-03 02:51N 07°58' W 152°38'1 0.8 18.1
2013-Dec-03 02:04N 07°57' W 152°38'245.1 18.1
2013-Dec-03 02:01N 07°55' W 152°39'0 0.0 18.4
2013-Dec-03 00:04N 07°55' W 152°39'221.7 18.8
2013-Dec-02 23:58N 07°53' W 152°39'0 0.0 18.8
2013-Dec-02 22:25N 07°53' W 152°39'6 1.0 18.3
2013-Dec-02 16:42N 07°47' W 152°41'1 0.9 17.7
2013-Dec-02 15:43N 07°47' W 152°41'1 1.2 17.4
2013-Dec-02 15:09N 07°46' W 152°41'0 1.6 17.4
2013-Dec-02 15:00N 07°46' W 152°41'0 0.0 16.8
2013-Dec-02 14:58N 07°46' W 152°41'1 1.1 16.8
2013-Dec-02 14:06N 07°45' W 152°41'1 1.4 16.8
2013-Dec-02 13:19N 07°44' W 152°41'2 3.6 16.8
2013-Dec-02 12:51N 07°42' W 152°41'0 0.0 16.5
2013-Dec-02 11:15N 07°42' W 152°41'0 1.8 16.7
2013-Dec-02 11:13N 07°43' W 152°41'2 1.1 16.7
2013-Dec-02 09:19N 07°40' W 152°41'0 0.0 15.2
2013-Dec-02 08:55N 07°40' W 152°41'1 1.2 15.3
2013-Dec-02 07:46N 07°39' W 152°42'1 1.5 14.8
2013-Dec-02 07:17N 07°39' W 152°42'1 7.3 14.8
2013-Dec-02 07:12N 07°38' W 152°43'1 2.3 14.8
2013-Dec-02 06:56N 07°39' W 152°42'2 2.4 14.8
2013-Dec-02 06:01N 07°36' W 152°42'1 3.9 14.5
2013-Dec-02 05:47N 07°37' W 152°43'1 0.8 14.5
2013-Dec-02 04:11N 07°36' W 152°42'0 0.4 14.4
2013-Dec-02 03:14N 07°36' W 152°42'1 0.7 14.4
2013-Dec-02 02:21N 07°36' W 152°42'1 4.6 13.6
2013-Dec-02 02:14N 07°36' W 152°42'1 0.8 13.6
2013-Dec-02 00:38N 07°34' W 152°42'0 0.0 12.3
2013-Dec-02 00:17N 07°34' W 152°42'1 7.8 12.3
2013-Dec-02 00:09N 07°33' W 152°42'2 1.1 12.3
2013-Dec-01 22:34N 07°32' W 152°43'1 0.3 11.1
2013-Dec-01 19:57N 07°31' W 152°42'2 1.8 18.4
2013-Dec-01 19:02N 07°30' W 152°43'0 0.0 17.9
2013-Dec-01 18:29N 07°30' W 152°43'1 0.7 17.9
2013-Dec-01 17:12N 07°29' W 152°44'0 0.2 17.5
2013-Dec-01 15:33N 07°29' W 152°44'0 0.0 17.1
2013-Dec-01 15:04N 07°29' W 152°44'1 0.6 16.9
2013-Dec-01 13:31N 07°28' W 152°44'0 1.3 16.5
2013-Dec-01 13:27N 07°28' W 152°44'0 0.8 16.5
2013-Dec-01 13:04N 07°28' W 152°45'1 0.5 16.9
2013-Dec-01 11:29N 07°27' W 152°45'0 0.0 16.9
2013-Dec-01 11:25N 07°27' W 152°45'217.5 16.9
2013-Dec-01 11:18N 07°26' W 152°46'1 0.3 16.9
2013-Dec-01 07:59N 07°25' W 152°46'0 0.4 16.9
2013-Dec-01 07:23N 07°25' W 152°47'0 0.0 16.9
2013-Dec-01 06:25N 07°25' W 152°47'2 0.9 16.8
2013-Dec-01 04:42N 07°24' W 152°48'0 0.0 15.9
2013-Dec-01 03:36N 07°24' W 152°48'0 0.7 16.4
2013-Dec-01 03:02N 07°23' W 152°48'0 0.0 16.9
2013-Dec-01 02:32N 07°23' W 152°48'0 0.0 16.9
2013-Dec-01 02:25N 07°23' W 152°48'0 0.8 16.9
2013-Dec-01 01:57N 07°24' W 152°48'1 0.8 17.4
2013-Dec-01 00:50N 07°23' W 152°49'0 0.6 18.1
2013-Dec-01 00:27N 07°23' W 152°49'110.2 18.1
2013-Dec-01 00:21N 07°24' W 152°50'0 0.0 18.1
2013-Nov-30 22:48N 07°24' W 152°50'1 6.6 18.4
2013-Nov-30 22:38N 07°23' W 152°51'0 0.0 18.4
2013-Nov-30 21:02N 07°23' W 152°51'1 5.5 19.0
2013-Nov-30 20:56N 07°23' W 152°51'2 2.7 19.0
2013-Nov-30 20:16N 07°23' W 152°53'0 0.0 19.0
2013-Nov-30 19:23N 07°23' W 152°53'2 1.0 19.1
2013-Nov-30 17:49N 07°22' W 152°54'0 0.0 18.9
2013-Nov-30 16:13N 07°22' W 152°54'1 6.0 19.1
2013-Nov-30 16:04N 07°22' W 152°55'0 0.1 19.2
2013-Nov-30 15:19N 07°22' W 152°55'0 1.1 19.2
2013-Nov-30 14:58N 07°22' W 152°55'0 0.6 19.4
2013-Nov-30 14:52N 07°22' W 152°55'1 1.1 19.4
2013-Nov-30 13:42N 07°22' W 152°56'0 1.1 19.5
2013-Nov-30 13:18N 07°22' W 152°57'2 0.9 19.5
2013-Nov-30 11:34N 07°22' W 152°58'3 1.0 19.7
2013-Nov-30 08:25N 07°21' W 153°01'218.9 20.3
2013-Nov-30 08:20N 07°20' W 153°03'0 0.5 20.3
2013-Nov-30 07:41N 07°20' W 153°02'0 2.6 20.4
2013-Nov-30 07:34N 07°20' W 153°03'0 0.0 20.4
2013-Nov-30 06:46N 07°20' W 153°03'2 2.6 20.6
2013-Nov-30 05:59N 07°19' W 153°04'1 1.9 20.8
2013-Nov-30 05:13N 07°18' W 153°06'0 0.0 20.8
2013-Nov-30 04:03N 07°18' W 153°06'1 3.1 20.7
2013-Nov-30 03:34N 07°18' W 153°07'0 0.3 20.7
2013-Nov-30 02:41N 07°17' W 153°07'221.1 20.8
2013-Nov-30 02:34N 07°16' W 153°09'0 0.0 20.8
2013-Nov-30 02:24N 07°16' W 153°09'0 0.0 20.8
2013-Nov-30 01:02N 07°16' W 153°09'1 4.9 20.9
2013-Nov-30 00:54N 07°16' W 153°10'0 0.2 20.9
2013-Nov-30 00:39N 07°16' W 153°10'1 6.9 20.9
2013-Nov-30 00:32N 07°15' W 153°10'1 0.8 20.9
2013-Nov-29 22:58N 07°14' W 153°11'221.0 21.7
2013-Nov-29 22:51N 07°13' W 153°13'1 0.5 21.7
2013-Nov-29 20:37N 07°12' W 153°14'0 0.0 21.9
2013-Nov-29 19:44N 07°12' W 153°14'1 0.7 21.9
2013-Nov-29 18:54N 07°12' W 153°14'0 1.8 21.8
2013-Nov-29 18:48N 07°11' W 153°14'2 1.1 21.8
2013-Nov-29 16:42N 07°10' W 153°15'113.6 21.9
2013-Nov-29 16:36N 07°09' W 153°16'0 0.0 21.9
2013-Nov-29 15:30N 07°09' W 153°16'0 0.0 22.0
2013-Nov-29 15:23N 07°09' W 153°16'1 1.7 22.0
2013-Nov-29 15:03N 07°08' W 153°16'1 0.9 21.9
2013-Nov-29 13:50N 07°07' W 153°17'0 0.8 21.9
2013-Nov-29 13:27N 07°07' W 153°17'2 0.9 21.9
2013-Nov-29 11:47N 07°06' W 153°18'2 0.8 22.1
2013-Nov-29 08:48N 07°05' W 153°20'1 5.3 22.8
2013-Nov-29 08:39N 07°04' W 153°20'0 0.1 22.8
2013-Nov-29 07:59N 07°04' W 153°20'0 1.2
2013-Nov-29 07:56N 07°04' W 153°20'132.2 22.7
2013-Nov-29 07:55N 07°03' W 153°21'0 0.0 22.7
2013-Nov-29 07:05N 07°03' W 153°21'0 5.6 22.7
2013-Nov-29 07:00N 07°03' W 153°21'1 0.7 22.7
2013-Nov-29 06:04N 07°03' W 153°22'0 0.0
2013-Nov-29 05:41N 07°03' W 153°22'1 0.4 22.9
2013-Nov-29 04:27N 07°03' W 153°22'1 1.5 23.0
2013-Nov-29 04:02N 07°02' W 153°22'0 0.0
2013-Nov-29 02:52N 07°02' W 153°22'1 6.7 23.1
2013-Nov-29 02:44N 07°01' W 153°23'0 0.0 23.1
2013-Nov-29 01:10N 07°01' W 153°23'1 9.7 23.2
2013-Nov-29 01:03N 07°01' W 153°24'1 4.5 23.2
2013-Nov-29 00:49N 07°02' W 153°23'1 8.9 23.2
2013-Nov-29 00:42N 07°01' W 153°24'0 0.0 23.2
2013-Nov-28 23:04N 07°01' W 153°24'112.0 23.1
2013-Nov-28 23:01N 07°01' W 153°25'2 0.9 23.1
2013-Nov-28 20:57N 07°00' W 153°26'1 3.9 23.4
2013-Nov-28 20:47N 07°00' W 153°26'1 1.3 23.4
2013-Nov-28 20:04N 06°60' W 153°27'0 0.3 23.4
2013-Nov-28 19:14N 07°00' W 153°27'1 2.6
2013-Nov-28 19:01N 06°60' W 153°27'0 0.0 23.1
2013-Nov-28 18:22N 06°60' W 153°27'0 0.0 23.1
2013-Nov-28 17:15N 06°60' W 153°27'0 1.8 23.5
2013-Nov-28 17:05N 06°60' W 153°28'0 0.0
2013-Nov-28 15:40N 06°60' W 153°28'0 0.0 23.7
2013-Nov-28 15:36N 06°60' W 153°28'1 6.9 23.7
2013-Nov-28 15:24N 06°60' W 153°29'0 0.0 23.7
2013-Nov-28 14:04N 06°60' W 153°29'161.6
2013-Nov-28 14:03N 07°00' W 153°30'3 1.5 23.4
2013-Nov-28 12:02N 07°02' W 153°32'0 0.0 23.3
2013-Nov-28 08:14N 07°02' W 153°32'0 0.0 23.2
2013-Nov-28 08:00N 07°02' W 153°32'1 1.0 23.1
2013-Nov-28 07:28N 07°02' W 153°33'0 2.6 23.1
2013-Nov-28 07:21N 07°02' W 153°33'0 0.0 23.1
2013-Nov-28 06:27N 07°02' W 153°33'213.1 23.1
2013-Nov-28 06:18N 07°02' W 153°35'1 0.6 23.1
2013-Nov-28 04:36N 07°02' W 153°34'2 1.2 22.9
2013-Nov-28 03:13N 07°02' W 153°35'0 0.7 22.9
2013-Nov-28 03:03N 07°02' W 153°35'1 8.9 22.8
2013-Nov-28 02:53N 07°02' W 153°37'0 0.0 22.8
2013-Nov-28 01:23N 07°02' W 153°37'0 0.0 22.8
2013-Nov-28 01:17N 07°02' W 153°37'1 1.8 22.8
2013-Nov-28 01:00N 07°03' W 153°37'1 0.7 22.8
2013-Nov-27 23:20N 07°03' W 153°39'316.8 22.8
2013-Nov-27 23:10N 07°03' W 153°41'1 0.6 22.8
2013-Nov-27 21:15N 07°03' W 153°42'0 0.0 22.7
2013-Nov-27 20:26N 07°03' W 153°42'0 0.5 22.6
2013-Nov-27 19:36N 07°03' W 153°43'0 0.0 22.5
2013-Nov-27 19:20N 07°03' W 153°43'117.1 22.5
2013-Nov-27 19:15N 07°03' W 153°44'0 0.0 22.5
2013-Nov-27 18:44N 07°03' W 153°44'0 0.0 22.3
2013-Nov-27 17:44N 07°03' W 153°44'4 2.4 22.2
2013-Nov-27 16:00N 07°02' W 153°48'0 0.0 22.1
2013-Nov-27 14:16N 07°02' W 153°48'0 1.8 22.0
2013-Nov-27 14:12N 07°02' W 153°49'3 6.3 22.0
2013-Nov-27 13:48N 07°02' W 153°51'0 0.0 21.8
2013-Nov-27 12:13N 07°02' W 153°51'4 1.0 22.7
2013-Nov-27 08:18N 07°01' W 153°55'1 2.6 22.7
2013-Nov-27 07:49N 07°01' W 153°56'0 3.6 23.1
2013-Nov-27 07:42N 07°01' W 153°57'0 0.0 23.1
2013-Nov-27 06:52N 07°01' W 153°57'0 0.0
2013-Nov-27 06:39N 07°01' W 153°57'215.8 23.0
2013-Nov-27 06:31N 07°00' W 153°59'0 0.0 23.0
2013-Nov-27 06:05N 07°00' W 153°59'2 1.8 23.1
2013-Nov-27 05:09N 06°60' W 154°00'223.3 23.1
2013-Nov-27 05:05N 07°00' W 153°59'2 1.1 23.4
2013-Nov-27 03:37N 06°60' W 154°00'0 0.0 23.6
2013-Nov-27 03:24N 06°60' W 154°00'0 0.5 23.6
2013-Nov-27 03:14N 06°60' W 154°00'2 1.2 23.6
2013-Nov-27 01:35N 06°59' W 154°02'1 4.7 23.5
2013-Nov-27 01:28N 06°58' W 154°02'0 0.0 23.5
2013-Nov-27 01:11N 06°58' W 154°02'215.8 23.5
2013-Nov-27 01:04N 06°57' W 154°04'0 0.0 23.7
2013-Nov-26 23:32N 06°57' W 154°04'211.5 23.5
2013-Nov-26 23:23N 06°57' W 154°06'1 0.5 23.5
2013-Nov-26 21:04N 06°56' W 154°06'1 0.8 23.5
2013-Nov-26 19:33N 06°55' W 154°06'0 0.6 23.4
2013-Nov-26 19:27N 06°55' W 154°06'1 1.9 23.4
2013-Nov-26 19:04N 06°55' W 154°06'1 0.5 23.3
2013-Nov-26 16:38N 06°54' W 154°07'214.1 23.3
2013-Nov-26 16:31N 06°52' W 154°08'0 0.0 23.3
2013-Nov-26 14:56N 06°52' W 154°08'0 2.9 23.3
2013-Nov-26 14:47N 06°52' W 154°08'0 0.0 23.3
2013-Nov-26 14:25N 06°52' W 154°08'2 0.9 23.3
2013-Nov-26 12:44N 06°50' W 154°07'0 0.0 23.2
2013-Nov-26 12:21N 06°50' W 154°07'0 0.1 23.2
2013-Nov-26 10:41N 06°50' W 154°07'1 0.4 23.2
2013-Nov-26 08:32N 06°50' W 154°08'0 2.0 23.2
2013-Nov-26 08:23N 06°50' W 154°08'0 0.6 23.2
2013-Nov-26 08:05N 06°50' W 154°08'0 5.7 23.2
2013-Nov-26 08:03N 06°50' W 154°08'0 0.1 23.2
2013-Nov-26 07:23N 06°50' W 154°08'0 1.0 23.2
2013-Nov-26 07:16N 06°50' W 154°08'0 0.0 23.2
2013-Nov-26 06:52N 06°50' W 154°08'0 2.4 23.2
2013-Nov-26 06:43N 06°50' W 154°08'0 1.4 23.2
2013-Nov-26 06:27N 06°50' W 154°08'1 0.6 23.2
2013-Nov-26 04:00N 06°49' W 154°09'0 0.0 22.9
2013-Nov-26 03:25N 06°49' W 154°09'0 0.0 22.9
2013-Nov-26 02:22N 06°49' W 154°09'0 0.0 22.9
2013-Nov-26 01:46N 06°49' W 154°09'0 2.8 22.8
2013-Nov-26 01:36N 06°49' W 154°09'0 0.0 22.8
2013-Nov-26 01:20N 06°49' W 154°09'1 0.6 22.8
2013-Nov-25 23:34N 06°50' W 154°09'0 0.1 22.7
2013-Nov-25 21:00N 06°50' W 154°09'1 1.3 22.5
2013-Nov-25 20:19N 06°51' W 154°10'0 0.0 22.5
2013-Nov-25 19:44N 06°51' W 154°10'0 0.0 22.4
2013-Nov-25 19:41N 06°51' W 154°10'0 0.5 22.4
2013-Nov-25 19:26N 06°51' W 154°10'3 1.5 22.4
2013-Nov-25 17:09N 06°54' W 154°11'0 0.0 22.7
2013-Nov-25 16:53N 06°54' W 154°11'0 0.0 22.7
2013-Nov-25 15:30N 06°54' W 154°11'0 0.0 22.7
2013-Nov-25 15:21N 06°54' W 154°11'0 0.0 22.7
2013-Nov-25 15:16N 06°54' W 154°11'1 1.1 22.7
2013-Nov-25 14:38N 06°55' W 154°12'0 0.7 22.7
2013-Nov-25 14:33N 06°55' W 154°11'2 1.3 22.7
2013-Nov-25 12:55N 06°57' W 154°12'0 0.0 22.4
2013-Nov-25 12:35N 06°57' W 154°12'2 1.3 22.4
2013-Nov-25 10:52N 06°59' W 154°12'1 0.2 21.4
2013-Nov-25 08:23N 06°60' W 154°12'0 0.0 22.0
2013-Nov-25 07:44N 06°60' W 154°12'1 7.1 22.3
2013-Nov-25 07:37N 06°60' W 154°11'0 0.0 22.3
2013-Nov-25 06:55N 06°60' W 154°11'0 0.0 22.5
2013-Nov-25 06:51N 06°60' W 154°11'0 0.0 22.5
2013-Nov-25 06:02N 06°60' W 154°11'5 3.2 22.5
2013-Nov-25 04:32N 07°03' W 154°14'0 0.0 22.6
2013-Nov-25 04:25N 07°03' W 154°14'   22.6

Dump ship's entire track history